createdAt,value
2024-01-20T00:01:24.865Z,97957.44
2024-01-20T00:03:53.349Z,97967.03
2024-01-20T00:06:20.956Z,97971.13
2024-01-20T00:08:48.484Z,97965.47
2024-01-20T00:11:16.178Z,97971.72
2024-01-20T00:13:43.809Z,97972.22
2024-01-20T00:16:11.511Z,97979.63
2024-01-20T00:18:38.980Z,97978.91
2024-01-20T00:21:06.819Z,97970.56
2024-01-20T00:23:34.420Z,97971.06
2024-01-20T00:26:01.960Z,97971.91
2024-01-20T00:28:29.564Z,97966.66
2024-01-20T00:30:57.039Z,97971.56
2024-01-20T00:33:24.764Z,97962.84
2024-01-20T00:35:52.183Z,97967.16
2024-01-20T00:38:19.685Z,97984.03
2024-01-20T00:40:47.008Z,97980.06
2024-01-20T00:43:15.082Z,97988.06
2024-01-20T00:45:42.572Z,98003.03
2024-01-20T00:48:10.441Z,98004.84
2024-01-20T00:50:37.779Z,98008.38
2024-01-20T00:53:05.172Z,98004.09
2024-01-20T00:55:32.511Z,98006.78
2024-01-20T00:58:00.098Z,98007.53
2024-01-20T01:00:27.354Z,98010.25
2024-01-20T01:02:55.339Z,98008.53
2024-01-20T01:05:22.758Z,98006.28
2024-01-20T01:07:50.229Z,98006.22
2024-01-20T01:10:18.005Z,98007.00
2024-01-20T01:12:45.465Z,98006.63
2024-01-20T01:15:13.092Z,98001.53
2024-01-20T01:17:40.542Z,98002.34
2024-01-20T01:20:10.325Z,97993.03
2024-01-20T01:22:37.704Z,97988.16
2024-01-20T01:25:05.720Z,97984.66
2024-01-20T01:27:32.919Z,97982.28
2024-01-20T01:30:00.268Z,97988.50
2024-01-20T01:32:27.711Z,97991.28
2024-01-20T01:34:55.086Z,97994.16
2024-01-20T01:37:22.609Z,97998.00
2024-01-20T01:39:50.088Z,97999.00
2024-01-20T01:42:17.318Z,98006.34
2024-01-20T01:44:44.645Z,98009.34
2024-01-20T01:47:12.318Z,98013.66
2024-01-20T01:52:08.104Z,98030.53
2024-01-20T01:54:35.646Z,98026.16
2024-01-20T01:57:04.428Z,98029.56
2024-01-20T01:59:32.773Z,98032.28
2024-01-20T02:02:00.020Z,98029.56
2024-01-20T02:04:27.364Z,98030.47
2024-01-20T02:06:54.904Z,98035.50
2024-01-20T02:09:22.736Z,98045.47
2024-01-20T02:11:50.620Z,98044.03
2024-01-20T02:14:20.136Z,98043.44
2024-01-20T02:16:47.381Z,98051.81
2024-01-20T02:19:15.024Z,98051.13
2024-01-20T02:21:42.548Z,98055.31
2024-01-20T02:24:10.896Z,98050.66
2024-01-20T02:26:38.328Z,98049.72
2024-01-20T02:29:05.728Z,98045.13
2024-01-20T02:31:33.035Z,98049.13
2024-01-20T02:34:01.516Z,98042.91
2024-01-20T02:36:29.032Z,98044.84
2024-01-20T02:38:58.105Z,98043.53
2024-01-20T02:41:25.570Z,98050.38
2024-01-20T02:43:52.854Z,98050.31
2024-01-20T02:46:20.153Z,98048.66
2024-01-20T02:48:47.644Z,98051.47
2024-01-20T02:51:15.094Z,98044.63
2024-01-20T02:53:42.369Z,98047.75
2024-01-20T02:56:09.761Z,98039.25
2024-01-20T02:58:37.088Z,98042.19
2024-01-20T03:03:53.463Z,98042.94
2024-01-20T03:06:20.811Z,98048.41
2024-01-20T03:08:48.239Z,98049.44
2024-01-20T03:11:15.753Z,98064.78
2024-01-20T03:13:43.287Z,98051.19
2024-01-20T03:16:11.261Z,98060.59
2024-01-20T03:18:38.622Z,98055.66
2024-01-20T03:21:06.394Z,98055.28
2024-01-20T03:23:34.458Z,98055.28
2024-01-20T03:26:09.951Z,98053.41
2024-01-20T03:28:42.054Z,98050.28
2024-01-20T03:31:09.417Z,98068.19
2024-01-20T03:33:36.768Z,98077.50
2024-01-20T03:36:04.967Z,98073.94
2024-01-20T03:38:32.327Z,98073.28
2024-01-20T03:40:59.623Z,98067.94
2024-01-20T03:43:27.557Z,98074.75
2024-01-20T03:45:54.763Z,98077.47
2024-01-20T03:48:22.528Z,98071.38
2024-01-20T03:50:50.190Z,98071.00
2024-01-20T03:53:17.617Z,98080.00
2024-01-20T03:55:44.889Z,98084.97
2024-01-20T03:58:12.408Z,98080.44
2024-01-20T04:00:39.820Z,98080.47
2024-01-20T04:03:07.237Z,98085.63
2024-01-20T04:05:34.557Z,98077.00
2024-01-20T04:08:01.871Z,98084.41
2024-01-20T04:10:29.314Z,98084.97
2024-01-20T04:12:56.672Z,98084.66
2024-01-20T04:15:24.089Z,98079.72
2024-01-20T04:17:53.897Z,98091.34
2024-01-20T04:20:21.396Z,98089.84
2024-01-20T04:22:48.633Z,98096.69
2024-01-20T04:25:16.155Z,98093.63
2024-01-20T04:27:43.472Z,98094.78
2024-01-20T04:30:14.579Z,98104.81
2024-01-20T04:32:42.085Z,98103.53
2024-01-20T04:35:10.062Z,98109.31
2024-01-20T04:37:39.901Z,98120.81
2024-01-20T04:40:08.053Z,98117.59
2024-01-20T04:42:36.132Z,98116.47
2024-01-20T04:45:05.385Z,98120.00
2024-01-20T04:47:34.171Z,98131.16
2024-01-20T04:50:01.576Z,98125.16
2024-01-20T04:52:28.833Z,98142.47
2024-01-20T04:54:56.230Z,98133.25
2024-01-20T04:57:23.629Z,98140.38
2024-01-20T04:59:50.983Z,98148.47
2024-01-20T05:02:19.173Z,98139.41
2024-01-20T05:04:46.623Z,98141.50
2024-01-20T05:07:13.976Z,98139.72
2024-01-20T05:09:41.281Z,98136.31
2024-01-20T05:12:08.733Z,98137.16
2024-01-20T05:14:36.660Z,98135.16
2024-01-20T05:17:07.400Z,98149.91
2024-01-20T05:19:38.221Z,98146.22
2024-01-20T05:22:05.776Z,98147.03
2024-01-20T05:24:33.125Z,98145.72
2024-01-20T05:27:00.557Z,98151.53
2024-01-20T05:29:27.845Z,98151.69
2024-01-20T05:31:55.197Z,98152.97
2024-01-20T05:34:22.656Z,98153.34
2024-01-20T05:36:50.005Z,98157.22
2024-01-20T05:39:17.416Z,98149.75
2024-01-20T05:41:44.937Z,98148.94
2024-01-20T05:44:12.415Z,98142.97
2024-01-20T05:46:41.852Z,98153.66
2024-01-20T05:49:09.868Z,98145.56
2024-01-20T05:51:37.519Z,98147.69
2024-01-20T05:54:05.279Z,98148.97
2024-01-20T05:56:32.903Z,98152.66
2024-01-20T05:59:00.272Z,98159.16
2024-01-20T06:01:27.936Z,98158.34
2024-01-20T06:03:55.429Z,98160.13
2024-01-20T06:06:23.006Z,98164.50
2024-01-20T06:08:50.507Z,98157.06
2024-01-20T06:11:18.004Z,98168.53
2024-01-20T06:13:45.425Z,98172.75
2024-01-20T06:16:14.061Z,98174.66
2024-01-20T06:18:41.505Z,98180.03
2024-01-20T06:21:09.476Z,98187.31
2024-01-20T06:23:38.433Z,98177.78
2024-01-20T06:26:05.858Z,98179.38
2024-01-20T06:28:33.396Z,98181.47
2024-01-20T06:31:01.785Z,98187.00
2024-01-20T06:33:29.316Z,98195.06
2024-01-20T06:35:56.798Z,98197.34
2024-01-20T06:38:24.180Z,98198.94
2024-01-20T06:40:51.673Z,98205.59
2024-01-20T06:43:19.154Z,98211.91
2024-01-20T06:45:47.468Z,98215.63
2024-01-20T06:48:15.134Z,98213.53
2024-01-20T06:50:44.751Z,98217.88
2024-01-20T06:53:12.815Z,98224.03
2024-01-20T06:55:40.368Z,98218.53
2024-01-20T06:58:07.960Z,98219.97
2024-01-20T07:00:35.781Z,98227.59
2024-01-20T07:03:05.133Z,98232.44
2024-01-20T07:05:32.678Z,98236.16
2024-01-20T07:08:00.247Z,98246.53
2024-01-20T07:10:27.603Z,98243.94
2024-01-20T07:12:55.137Z,98244.75
2024-01-20T07:15:22.733Z,98239.09
2024-01-20T07:17:50.238Z,98249.09
2024-01-20T07:20:17.886Z,98245.22
2024-01-20T07:22:45.425Z,98251.88
2024-01-20T07:25:13.241Z,98248.28
2024-01-20T07:27:41.040Z,98246.88
2024-01-20T07:30:09.948Z,98253.13
2024-01-20T07:32:42.745Z,98254.00
2024-01-20T07:35:11.258Z,98258.72
2024-01-20T07:37:38.838Z,98270.03
2024-01-20T07:40:07.165Z,98280.88
2024-01-20T07:42:35.936Z,98292.06
2024-01-20T07:45:03.992Z,98288.09
2024-01-20T07:47:31.963Z,98302.28
2024-01-20T07:49:59.344Z,98299.03
2024-01-20T07:52:26.797Z,98300.06
2024-01-20T07:54:54.258Z,98302.88
2024-01-20T07:57:21.664Z,98300.22
2024-01-20T07:59:49.289Z,98301.63
2024-01-20T08:02:16.774Z,98301.06
2024-01-20T08:04:44.107Z,98308.31
2024-01-20T08:07:11.660Z,98312.75
2024-01-20T08:09:39.320Z,98320.25
2024-01-20T08:12:07.309Z,98314.13
2024-01-20T08:14:34.666Z,98318.91
2024-01-20T08:17:02.015Z,98316.97
2024-01-20T08:19:29.799Z,98320.28
2024-01-20T08:21:57.220Z,98320.72
2024-01-20T08:24:24.494Z,98325.56
2024-01-20T08:26:52.853Z,98330.63
2024-01-20T08:29:23.174Z,98334.59
2024-01-20T08:31:50.574Z,98328.28
2024-01-20T08:34:17.899Z,98336.56
2024-01-20T08:36:45.386Z,98330.34
2024-01-20T08:39:12.795Z,98327.66
2024-01-20T08:41:40.221Z,98332.56
2024-01-20T08:44:07.528Z,98339.75
2024-01-20T08:46:34.844Z,98337.38
2024-01-20T08:49:02.631Z,98351.63
2024-01-20T08:51:30.457Z,98352.63
2024-01-20T08:53:59.551Z,98359.03
2024-01-20T08:56:27.028Z,98352.88
2024-01-20T08:58:54.327Z,98359.03
2024-01-20T09:01:21.808Z,98362.22
2024-01-20T09:03:49.344Z,98371.13
2024-01-20T09:06:17.177Z,98369.50
2024-01-20T09:08:44.800Z,98378.94
2024-01-20T09:11:12.270Z,98385.44
2024-01-20T09:13:39.710Z,98382.13
2024-01-20T09:16:07.698Z,98373.31
2024-01-20T09:18:35.519Z,98379.94
2024-01-20T09:21:02.960Z,98374.69
2024-01-20T09:23:30.448Z,98372.81
2024-01-20T09:25:57.832Z,98367.47
2024-01-20T09:28:25.577Z,98380.81
2024-01-20T09:30:52.877Z,98380.22
2024-01-20T09:33:20.547Z,98371.56
2024-01-20T09:35:48.318Z,98379.59
2024-01-20T09:38:15.823Z,98377.25
2024-01-20T09:40:43.440Z,98379.66
2024-01-20T09:43:11.142Z,98376.44
2024-01-20T09:45:41.424Z,98377.38
2024-01-20T09:48:09.423Z,98373.06
2024-01-20T09:50:37.129Z,98374.66
2024-01-20T09:53:18.077Z,98369.28
2024-01-20T09:55:47.238Z,98372.66
2024-01-20T09:58:18.524Z,98358.44
2024-01-20T10:00:46.301Z,98366.75
2024-01-20T10:03:16.418Z,98356.19
2024-01-20T10:05:44.026Z,98353.63
2024-01-20T10:08:12.323Z,98338.25
2024-01-20T10:10:39.660Z,98334.72
2024-01-20T10:13:07.105Z,98339.16
2024-01-20T10:15:35.369Z,98337.78
2024-01-20T10:18:12.540Z,98339.25
2024-01-20T10:20:40.310Z,98337.69
2024-01-20T10:23:08.908Z,98346.69
2024-01-20T10:25:36.724Z,98349.81
2024-01-20T10:28:04.618Z,98341.03
2024-01-20T10:30:32.243Z,98342.75
2024-01-20T10:33:09.209Z,98329.66
2024-01-20T10:35:39.789Z,98332.88
2024-01-20T10:38:14.318Z,98335.28
2024-01-20T10:40:44.518Z,98328.84
2024-01-20T10:43:17.505Z,98337.31
2024-01-20T10:46:02.449Z,98325.59
2024-01-20T10:48:37.793Z,98327.66
2024-01-20T10:51:12.949Z,98321.34
2024-01-20T10:53:40.856Z,98314.13
2024-01-20T10:56:09.510Z,98323.44
2024-01-20T10:58:49.579Z,98329.22
2024-01-20T11:01:17.795Z,98333.19
2024-01-20T11:03:46.121Z,98330.91
2024-01-20T11:06:21.891Z,98338.38
2024-01-20T11:08:52.530Z,98345.06
2024-01-20T11:11:21.666Z,98340.22
2024-01-20T11:13:49.683Z,98335.28
2024-01-20T11:16:22.883Z,98343.06
2024-01-20T11:18:50.309Z,98338.25
2024-01-20T11:21:20.463Z,98337.50
2024-01-20T11:24:00.641Z,98339.56
2024-01-20T11:26:38.758Z,98329.97
2024-01-20T11:29:08.841Z,98327.44
2024-01-20T11:31:36.731Z,98320.78
2024-01-20T11:34:07.502Z,98326.06
2024-01-20T11:36:36.265Z,98315.41
2024-01-20T11:39:06.809Z,98301.72
2024-01-20T11:41:34.827Z,98297.84
2024-01-20T11:44:02.214Z,98296.84
2024-01-20T11:46:29.742Z,98284.16
2024-01-20T11:48:57.336Z,98285.31
2024-01-20T11:51:25.008Z,98280.91
2024-01-20T11:53:52.612Z,98280.38
2024-01-20T11:56:20.015Z,98284.50
2024-01-20T11:58:47.456Z,98278.16
2024-01-20T12:01:15.421Z,98285.50
2024-01-20T12:03:43.158Z,98291.91
2024-01-20T12:06:13.879Z,98293.75
2024-01-20T12:08:43.853Z,98293.84
2024-01-20T12:11:29.434Z,98303.31
2024-01-20T12:13:56.798Z,98292.47
2024-01-20T12:16:24.243Z,98302.34
2024-01-20T12:18:51.876Z,98305.41
2024-01-20T12:21:19.439Z,98310.03
2024-01-20T12:23:47.811Z,98307.84
2024-01-20T12:26:16.170Z,98313.25
2024-01-20T12:28:46.441Z,98316.94
2024-01-20T12:31:16.830Z,98314.75
2024-01-20T12:33:45.802Z,98312.19
2024-01-20T12:36:13.352Z,98312.69
2024-01-20T12:38:40.765Z,98311.53
2024-01-20T12:41:08.317Z,98320.31
2024-01-20T12:43:35.932Z,98315.88
2024-01-20T12:46:03.396Z,98314.84
2024-01-20T12:48:30.941Z,98316.59
2024-01-20T12:50:59.162Z,98307.97
2024-01-20T12:53:26.812Z,98315.56
2024-01-20T12:55:54.299Z,98308.41
2024-01-20T12:58:21.633Z,98313.47
2024-01-20T13:00:49.530Z,98306.03
2024-01-20T13:03:16.981Z,98301.59
2024-01-20T13:05:46.267Z,98301.00
2024-01-20T13:08:13.740Z,98295.38
2024-01-20T13:10:43.057Z,98302.00
2024-01-20T13:13:10.356Z,98294.81
2024-01-20T13:15:37.826Z,98288.44
2024-01-20T13:18:06.787Z,98279.38
2024-01-20T13:20:34.070Z,98278.09
2024-01-20T13:23:01.412Z,98276.75
2024-01-20T13:25:29.973Z,98274.63
2024-01-20T13:27:57.446Z,98279.72
2024-01-20T13:30:24.729Z,98288.84
2024-01-20T13:32:52.146Z,98281.75
2024-01-20T13:35:19.695Z,98297.06
2024-01-20T13:37:46.967Z,98305.56
2024-01-20T13:40:14.789Z,98308.31
2024-01-20T13:42:43.806Z,98309.13
2024-01-20T13:45:11.578Z,98305.78
2024-01-20T13:47:39.504Z,98304.53
2024-01-20T13:50:07.617Z,98308.84
2024-01-20T13:52:35.030Z,98302.28
2024-01-20T13:55:02.436Z,98297.81
2024-01-20T13:57:29.853Z,98297.44
2024-01-20T13:59:57.444Z,98295.81
2024-01-20T14:02:24.878Z,98296.09
2024-01-20T14:04:52.247Z,98293.69
2024-01-20T14:07:19.584Z,98304.19
2024-01-20T14:09:47.019Z,98294.94
2024-01-20T14:12:14.583Z,98292.88
2024-01-20T14:14:41.877Z,98292.41
2024-01-20T14:17:09.111Z,98289.38
2024-01-20T14:19:39.211Z,98299.84
2024-01-20T14:22:06.728Z,98299.59
2024-01-20T14:24:34.271Z,98304.56
2024-01-20T14:27:01.713Z,98311.53
2024-01-20T14:29:29.748Z,98311.97
2024-01-20T14:31:57.218Z,98305.25
2024-01-20T14:34:24.815Z,98312.50
2024-01-20T14:36:55.174Z,98314.47
2024-01-20T14:39:23.825Z,98315.22
2024-01-20T14:41:52.002Z,98320.00
2024-01-20T14:44:19.404Z,98313.41
2024-01-20T14:46:46.961Z,98321.09
2024-01-20T14:49:14.773Z,98326.03
2024-01-20T14:51:46.421Z,98324.41
2024-01-20T14:54:17.263Z,98325.56
2024-01-20T14:56:44.620Z,98325.09
2024-01-20T14:59:11.858Z,98328.84
2024-01-20T15:01:39.563Z,98340.19
2024-01-20T15:04:07.367Z,98338.69
2024-01-20T15:06:35.048Z,98352.72
2024-01-20T15:09:03.737Z,98344.25
2024-01-20T15:11:31.236Z,98345.53
2024-01-20T15:13:58.705Z,98349.16
2024-01-20T15:16:26.180Z,98358.34
2024-01-20T15:18:53.790Z,98363.34
2024-01-20T15:21:21.307Z,98355.13
2024-01-20T15:23:48.667Z,98360.44
2024-01-20T15:26:19.203Z,98372.56
2024-01-20T15:28:46.563Z,98369.25
2024-01-20T15:31:14.202Z,98368.63
2024-01-20T15:33:41.642Z,98379.22
2024-01-20T15:36:09.265Z,98367.81
2024-01-20T15:38:36.672Z,98370.97
2024-01-20T15:41:04.196Z,98374.16
2024-01-20T15:43:31.657Z,98386.03
2024-01-20T15:45:58.916Z,98380.16
2024-01-20T15:48:26.437Z,98386.16
2024-01-20T15:50:53.803Z,98384.94
2024-01-20T15:53:21.084Z,98381.84
2024-01-20T15:55:48.509Z,98381.19
2024-01-20T15:58:16.066Z,98378.34
2024-01-20T16:00:43.366Z,98390.91
2024-01-20T16:03:11.300Z,98384.78
2024-01-20T16:05:38.778Z,98389.03
2024-01-20T16:08:06.435Z,98385.19
2024-01-20T16:10:33.827Z,98388.03
2024-01-20T16:13:02.473Z,98384.44
2024-01-20T16:15:29.954Z,98386.50
2024-01-20T16:17:57.489Z,98378.63
2024-01-20T16:20:25.128Z,98386.25
2024-01-20T16:22:52.595Z,98386.72
2024-01-20T16:25:21.031Z,98393.72
2024-01-20T16:27:48.707Z,98392.13
2024-01-20T16:30:16.445Z,98398.72
2024-01-20T16:32:43.762Z,98396.53
2024-01-20T16:35:12.426Z,98404.44
2024-01-20T16:37:39.945Z,98401.38
2024-01-20T16:40:08.095Z,98397.63
2024-01-20T16:42:35.436Z,98395.50
2024-01-20T16:45:02.853Z,98391.72
2024-01-20T16:47:30.345Z,98395.16
2024-01-20T16:49:57.748Z,98400.66
2024-01-20T16:52:25.070Z,98400.06
2024-01-20T16:54:52.802Z,98406.22
2024-01-20T16:57:20.678Z,98407.88
2024-01-20T16:59:50.817Z,98415.13
2024-01-20T17:02:19.236Z,98417.56
2024-01-20T17:04:46.794Z,98421.00
2024-01-20T17:07:14.258Z,98424.56
2024-01-20T17:09:43.230Z,98424.69
2024-01-20T17:12:10.942Z,98426.81
2024-01-20T17:14:39.936Z,98444.81
2024-01-20T17:17:07.620Z,98456.19
2024-01-20T17:19:35.238Z,98454.88
2024-01-20T17:22:02.789Z,98457.78
2024-01-20T17:24:34.611Z,98449.53
2024-01-20T17:27:03.520Z,98464.59
2024-01-20T17:29:30.999Z,98462.00
2024-01-20T17:32:02.068Z,98478.19
2024-01-20T17:34:30.374Z,98481.78
2024-01-20T17:37:00.400Z,98479.25
2024-01-20T17:39:29.480Z,98478.56
2024-01-20T17:41:59.048Z,98484.22
2024-01-20T17:44:26.501Z,98484.03
2024-01-20T17:46:54.979Z,98490.38
2024-01-20T17:49:22.649Z,98493.28
2024-01-20T17:51:50.252Z,98499.63
2024-01-20T17:54:17.976Z,98507.91
2024-01-20T17:56:45.356Z,98508.72
2024-01-20T17:59:13.493Z,98509.19
2024-01-20T18:01:41.064Z,98512.47
2024-01-20T18:04:08.465Z,98511.16
2024-01-20T18:06:35.891Z,98519.09
2024-01-20T18:09:05.142Z,98520.41
2024-01-20T18:11:32.637Z,98528.34
2024-01-20T18:14:00.069Z,98526.44
2024-01-20T18:16:27.406Z,98535.00
2024-01-20T18:18:54.802Z,98534.53
2024-01-20T18:21:22.697Z,98535.31
2024-01-20T18:23:50.289Z,98530.16
2024-01-20T18:26:17.625Z,98539.41
2024-01-20T18:28:46.576Z,98542.50
2024-01-20T18:31:14.084Z,98547.88
2024-01-20T18:33:41.714Z,98543.00
2024-01-20T18:36:09.598Z,98538.13
2024-01-20T18:38:37.151Z,98537.94
2024-01-20T18:41:04.640Z,98533.72
2024-01-20T18:43:31.937Z,98538.09
2024-01-20T18:45:59.378Z,98526.63
2024-01-20T18:48:26.812Z,98540.72
2024-01-20T18:50:54.549Z,98536.97
2024-01-20T18:53:22.151Z,98529.66
2024-01-20T18:55:49.609Z,98536.16
2024-01-20T18:58:17.136Z,98536.19
2024-01-20T19:00:44.571Z,98546.22
2024-01-20T19:03:12.166Z,98544.59
2024-01-20T19:05:39.617Z,98550.78
2024-01-20T19:08:07.575Z,98549.78
2024-01-20T19:10:36.328Z,98556.44
2024-01-20T19:13:03.834Z,98550.47
2024-01-20T19:15:31.333Z,98554.81
2024-01-20T19:17:58.778Z,98563.59
2024-01-20T19:20:26.177Z,98558.06
2024-01-20T19:22:53.591Z,98559.69
2024-01-20T19:25:20.907Z,98563.09
2024-01-20T19:27:48.727Z,98566.03
2024-01-20T19:30:16.559Z,98565.22
2024-01-20T19:32:43.979Z,98558.72
2024-01-20T19:35:11.459Z,98565.53
2024-01-20T19:37:38.830Z,98567.00
2024-01-20T19:40:07.112Z,98567.66
2024-01-20T19:42:34.478Z,98568.13
2024-01-20T19:45:01.954Z,98571.56
2024-01-20T19:47:29.296Z,98572.50
2024-01-20T19:49:56.744Z,98570.56
2024-01-20T19:52:24.160Z,98582.41
2024-01-20T19:54:51.614Z,98582.91
2024-01-20T19:57:19.254Z,98586.78
2024-01-20T19:59:46.616Z,98577.84
2024-01-20T20:02:13.896Z,98590.50
2024-01-20T20:04:41.364Z,98593.59
2024-01-20T20:07:10.402Z,98591.97
2024-01-20T20:09:38.973Z,98600.06
2024-01-20T20:12:08.092Z,98601.72
2024-01-20T20:14:35.858Z,98607.22
2024-01-20T20:17:04.196Z,98609.97
2024-01-20T20:19:33.139Z,98603.19
2024-01-20T20:22:02.252Z,98605.28
2024-01-20T20:24:29.654Z,98608.50
2024-01-20T20:26:59.990Z,98613.06
2024-01-20T20:29:29.029Z,98607.72
2024-01-20T20:31:56.371Z,98604.44
2024-01-20T20:34:24.364Z,98604.91
2024-01-20T20:36:52.096Z,98608.28
2024-01-20T20:39:19.439Z,98607.13
2024-01-20T20:41:49.431Z,98610.84
2024-01-20T20:44:16.895Z,98606.81
2024-01-20T20:46:44.296Z,98607.72
2024-01-20T20:49:11.843Z,98611.78
2024-01-20T20:51:39.517Z,98617.94
2024-01-20T20:54:06.906Z,98622.47
2024-01-20T20:56:34.309Z,98616.97
2024-01-20T20:59:01.669Z,98617.09
2024-01-20T21:01:29.157Z,98619.03
2024-01-20T21:03:57.202Z,98611.47
2024-01-20T21:06:24.703Z,98615.59
2024-01-20T21:08:52.223Z,98615.69
2024-01-20T21:11:19.669Z,98620.00
2024-01-20T21:13:47.151Z,98621.63
2024-01-20T21:16:14.519Z,98619.06
2024-01-20T21:18:41.846Z,98615.50
2024-01-20T21:21:09.335Z,98617.72
2024-01-20T21:23:36.776Z,98617.16
2024-01-20T21:26:04.265Z,98621.28
2024-01-20T21:28:31.722Z,98619.13
2024-01-20T21:31:01.404Z,98622.41
2024-01-20T21:33:28.974Z,98617.03
2024-01-20T21:35:56.391Z,98625.44
2024-01-20T21:38:23.784Z,98629.81
2024-01-20T21:40:51.065Z,98626.19
2024-01-20T21:43:18.362Z,98631.38
2024-01-20T21:45:45.815Z,98629.25
2024-01-20T21:48:15.156Z,98628.28
2024-01-20T21:50:43.725Z,98628.28
2024-01-20T21:53:11.489Z,98633.59
2024-01-20T21:55:39.392Z,98632.25
2024-01-20T21:58:06.778Z,98629.13
2024-01-20T22:00:34.625Z,98630.50
2024-01-20T22:03:02.035Z,98636.56
2024-01-20T22:05:29.594Z,98633.00
2024-01-20T22:08:00.306Z,98641.13
2024-01-20T22:10:28.429Z,98635.63
2024-01-20T22:12:56.460Z,98643.06
2024-01-20T22:15:24.001Z,98646.34
2024-01-20T22:17:52.125Z,98646.81
2024-01-20T22:20:19.595Z,98651.84
2024-01-20T22:22:47.045Z,98649.91
2024-01-20T22:25:14.582Z,98650.22
2024-01-20T22:27:42.125Z,98648.28
2024-01-20T22:30:10.708Z,98653.63
2024-01-20T22:32:42.388Z,98655.44
2024-01-20T22:35:10.070Z,98659.63
2024-01-20T22:37:37.816Z,98657.03
2024-01-20T22:40:07.615Z,98661.75
2024-01-20T22:42:36.082Z,98665.97
2024-01-20T22:45:08.570Z,98672.94
2024-01-20T22:47:36.346Z,98671.97
2024-01-20T22:50:03.916Z,98673.91
2024-01-20T22:52:31.270Z,98668.72
2024-01-20T22:54:58.613Z,98666.44
2024-01-20T22:57:25.965Z,98670.81
2024-01-20T22:59:53.342Z,98677.66
2024-01-20T23:02:22.024Z,98677.31
2024-01-20T23:04:51.038Z,98672.94
2024-01-20T23:07:19.106Z,98678.31
2024-01-20T23:09:46.639Z,98679.94
2024-01-20T23:12:14.799Z,98676.03
2024-01-20T23:14:44.646Z,98680.75
2024-01-20T23:17:12.641Z,98678.31
2024-01-20T23:19:39.986Z,98672.31
2024-01-20T23:22:07.514Z,98679.91
2024-01-20T23:24:35.064Z,98669.53
2024-01-20T23:27:02.641Z,98671.00
2024-01-20T23:29:30.627Z,98668.25
2024-01-20T23:31:57.980Z,98674.25
2024-01-20T23:34:25.272Z,98670.66
2024-01-20T23:36:52.974Z,98668.91
2024-01-20T23:39:20.550Z,98665.63
2024-01-20T23:41:47.938Z,98662.72
2024-01-20T23:44:15.328Z,98662.06
2024-01-20T23:46:42.668Z,98658.00
2024-01-20T23:49:12.081Z,98664.84
2024-01-20T23:51:39.598Z,98667.56
2024-01-20T23:54:07.011Z,98665.97
2024-01-20T23:56:34.490Z,98675.03
2024-01-20T23:59:02.749Z,98670.00
